Terminal Aerodrome Forecast
Issued by NWS

Home | Current Version | Previous Version | Text Only | Print | Product List | Glossary On
Versions: 1 2 3 4 5 6 7 8 9 10 11 12 13 14 15 16 17
279
FTUS42 TJSJ 290548
TAFJPS
TAF
TJPS 290548Z 2906/3006 19010KT P6SM -RA VCTS SCT020CB SCT040 SCT060
      TEMPO 2906/2907 2SM TSRA BKN020CB
     FM291330 15010KT P6SM VCSH SCT025 BKN060
     FM292330 10007KT P6SM FEW030 SCT060
      AMD NOT SKED 2912/3003=

USA.gov is the U.S. government's official web portal to all federal, state and local government web resources and services.